Tiempo atmosférico en la estación meteorológica de Capella, Huesca (600 m.)



Fecha
DESCASC
Temp. máxima en grados centígrados (hora)
DESCASC
Temp. mínima en grados centígrados (hora)
DESCASC
Temp. media en grados centígrados
DESCASC
Racha de viento máxima en m/sg (hora)
DESCASC
Velocidad máxima media en intervalos de 10 minutos(hora)
DESCASC
Precipitaciones diarias en mm
DESCASC
Precipitaciones de 00:00 a 06:00 en mm
DESCASC
Precipitaciones de 06:00 a 12:00 en mm
DESCASC
Precipitaciones de 12:00 a 18:00 en mm
DESCASC
Precipitaciones de 18:00 a 24:00 en mm
DESCASC
22-04-2019 17 (16:10) 6.2 (06:00) 11.6 5 (16:00) 3.06 (19:10) 0.6 0 0.6 0 0
21-04-2019 13.4 (17:10) 7.5 (06:30) 10.4 3.33 (03:20) 1.94 (03:20) 4.8 3.8 1 0 0
20-04-2019 20.3 (15:10) 5.3 (06:20) 12.8 8.33 (15:20) 4.72 (14:40) 0.6 0 0 0 0.6
19-04-2019 19.7 (18:40) 8.6 (06:50) 14.2 5.28 (02:00) 3.61 (01:20) 0 0 0 0 0
18-04-2019 18.2 (15:50) 6.9 (00:00) 12.6 10.28 (13:40) 5.83 (13:40) 0 0 0 0 0
17-04-2019 21.2 (17:10) 3.7 (00:00) 12.5 6.67 (10:40) 4.17 (11:30) 0 0 0 0 0
16-04-2019 18.1 (17:10) 7.2 (00:00) 12.7 7.22 (18:00) 3.89 (21:10) 1.2 1.2 0 0 0
15-04-2019 19.9 (16:20) 6.8 (00:00) 13.3 11.11 (21:50) 6.67 (21:50) 6 0 0 0 6
14-04-2019 23.4 (17:20) 3.5 (00:00) 13.4 9.17 (18:20) 6.39 (18:20) 0 0 0 0 0
13-04-2019 19.3 (17:10) -0.8 (-00:0) 9.2 10.28 (16:20) 6.11 (16:40) 0 0 0 0 0
12-04-2019 18.7 (17:40) 0.6 (00:00) 9.7 7.78 (22:30) 4.72 (18:20) 0 0 0 0 0
11-04-2019 17.3 (15:00) -0.1 (00:00) 8.6 7.78 (16:20) 4.72 (15:20) 0 0 0 0 0
10-04-2019 15.6 (13:40) 2.5 (00:00) 9.1 7.78 (15:30) 5 (15:30) 0.2 0 0 0.2 0
09-04-2019 16.5 (16:10) 5 (00:00) 10.8 12.22 (16:20) 7.22 (17:20) 0 0 0 0 0
08-04-2019 16.5 (18:10) 2.1 (00:00) 9.3 8.06 (19:10) 4.17 (14:30) 0 0 0 0 0
07-04-2019 14.6 (18:40) 0 (00:00) 7.3 7.78 (16:10) 4.17 (16:20) 0 0 0 0 0
06-04-2019 9.4 (16:50) 2.9 (00:00) 6.1 7.5 (17:10) 4.44 (02:50) 17.2 7.2 4.6 0.2 5.2
05-04-2019 11.2 (15:10) 1.5 (00:00) 6.3 6.39 (11:50) 3.61 (11:20) 10 0 0.8 0 9.2
04-04-2019 12.5 (17:10) -3.4 (-00:0) 4.5 9.44 (16:10) 5.83 (00:30) 0 0 0 0 0
03-04-2019 11 (13:00) 4 (00:00) 7.5 10.56 (20:30) 6.11 (20:30) 0 0 0 0 0
02-04-2019 17.5 (16:50) 5.9 (00:00) 11.7 10.56 (14:20) 6.11 (14:20) 2.6 0 0 2.6 0
01-04-2019 16.3 (15:20) 6.8 (00:00) 11.5 7.78 (16:40) 5.28 (16:40) 0.4 0.2 0.2 0 0
31-03-2019 14 (15:10) 0.3 (00:00) 7.2 5.83 (17:50) 3.89 (17:40) 0 0 0 0 0
30-03-2019 16.9 (15:50) -0.2 (00:00) 8.3 7.22 (15:40) 4.17 (14:10) 0 0 0 0 0
29-03-2019 15.4 (18:10) 1.5 (00:00) 8.4 8.61 (19:40) 4.72 (19:40) 0 0 0 0 0
28-03-2019 16.2 (16:10) 0 (00:00) 8.1 8.06 (14:50) 5.56 (14:00) 0 0 0 0 0
27-03-2019 16.7 (17:10) -1.7 (-00:0) 7.5 7.78 (15:20) 5 (13:30) 0 0 0 0 0

Gráficas

Temp. máximas Temp. mínimas Temp. medias Precipitaciones Rachas de viento máximas Velocidades máximas media en intervalos de 10 minutos

Datos horarios

Fecha y hora oficial Temperatura (ºC) Velocidad del viento (km/h) Dirección del viento Racha (km/h) Dirección de racha Precipitación (mm) Presión (hPa) Tendencia (hPa) Humedad (%)
2019-04-25 23:00:00 5.4 3 Norte 6 Este 0.2 -- -- 88
2019-04-25 22:00:00 6.8 2 Sudoeste 9 Este 0 -- -- 88
2019-04-25 21:00:00 8.2 4 Sur 7 Sur 0 -- -- 82
2019-04-25 20:00:00 11.4 5 Sudoeste 10 Sudoeste 0 -- -- 65
2019-04-25 19:00:00 10.7 4 Sur 28 Sudoeste 0 -- -- 68
2019-04-25 18:00:00 10.2 11 Sur 31 Sur 0 -- -- 67
2019-04-25 17:00:00 10.5 7 Oeste 47 Sudoeste 0.4 -- -- 73
2019-04-25 16:00:00 14.4 14 Sur 40 Sur 0 -- -- 47
2019-04-25 15:00:00 15.6 18 Sur 35 Sur 0 -- -- 50
2019-04-25 14:00:00 15.3 19 Sur 33 Sur 0 -- -- 52
2019-04-25 13:00:00 14.3 7 Sur 22 Sur 0 -- -- 63
2019-04-25 12:00:00 13.3 11 Sur 22 Sur 0 -- -- 62
2019-04-25 11:00:00 11.9 5 Sur 16 Sur 0 -- -- 73
2019-04-25 10:00:00 10.2 9 Sur 16 Sur 0 -- -- 79
2019-04-25 09:00:00 10.2 8 Sur 21 Sur 0 -- -- 88
2019-04-25 08:00:00 10 15 Sur 49 Sur 5.6 -- -- 87
2019-04-25 07:00:00 11 14 Este 45 Sudeste 0.6 -- -- 87
2019-04-25 06:00:00 10.8 14 Este 38 Sudeste 0.8 -- -- 86
2019-04-25 05:00:00 11.3 12 Este 36 Este 0 -- -- 80
2019-04-25 04:00:00 11 11 Este 28 Este 0 -- -- 80
2019-04-25 03:00:00 10.3 6 Nordeste 34 Este 0.8 -- -- 84
2019-04-25 02:00:00 10.2 16 Este 40 Este 0.2 -- -- 82
2019-04-25 01:00:00 9.9 19 Este 43 Este 1.4 -- -- 80
2019-04-25 00:00:00 9.7 15 Este 44 Este 0.8 -- -- 79
2019-04-24 23:00:00 10.2 16 Este 37 Este 0.6 -- -- 78
2019-04-24 22:00:00 11.1 17 Este 36 Sudeste 0 -- -- 69
2019-04-24 21:00:00 9.5 9 Nordeste 21 Este 0 -- -- 77
2019-04-24 20:00:00 9.3 10 Nordeste 21 Norte 0 -- -- 78
2019-04-24 19:00:00 9.6 9 Nordeste 24 Nordeste 0 -- -- 78
2019-04-24 18:00:00 9.3 11 Nordeste 22 Nordeste 0 -- -- 79
2019-04-24 17:00:00 9 11 Norte 19 Norte 0 -- -- 83
2019-04-24 16:00:00 8.9 6 Nordeste 18 Sur 0.6 -- -- 77
2019-04-24 15:00:00 8.8 10 Sur 22 Sur 0.4 -- -- 74
2019-04-24 14:00:00 9.5 15 Sur 26 Sudeste 0 -- -- 63
2019-04-24 13:00:00 10.5 10 Sur 17 Sudeste 0 -- -- 64
2019-04-24 12:00:00 9.1 3 Sudoeste 18 Sudoeste 0 -- -- 73
2019-04-24 11:00:00 8.4 10 Sudoeste 19 Sur 0 -- -- 79
2019-04-24 10:00:00 7.6 3 Noroeste 11 Sudoeste 0 -- -- 87
2019-04-24 09:00:00 6.5 9 Sur 16 Sur 0 -- -- 90
2019-04-24 08:00:00 5.9 3 Norte 6 Sudoeste 0 -- -- 99
2019-04-24 07:00:00 5.4 3 Nordeste 5 Sudeste 0 -- -- 98
2019-04-24 06:00:00 5.4 2 Norte 6 Sur 0 -- -- 98
2019-04-24 05:00:00 4.5 2 Noroeste 5 Este 0 -- -- 96
2019-04-24 04:00:00 6.1 3 Sur 6 Sur 0 -- -- 96
2019-04-24 03:00:00 6.8 0 Calma 7 Nordeste 0.2 -- -- 96
2019-04-24 02:00:00 7.1 3 Sudeste 10 Este 0.2 -- -- 94
2019-04-24 01:00:00 7.2 5 Este 17 Oeste 1 -- -- 93
2019-04-24 00:00:00 7.9 12 Oeste 22 Oeste 0 -- -- 91
2019-04-23 23:00:00 8.5 3 Oeste 19 Nordeste 0 -- -- 86
2019-04-23 22:00:00 8.7 7 Nordeste 14 Este 0 -- -- 89
2019-04-23 21:00:00 9.1 3 Noroeste 15 Sudoeste 4.4 -- -- 97
2019-04-23 20:00:00 9.3 13 Sudoeste 34 Sur 10.4 -- -- 95
2019-04-23 19:00:00 11.6 15 Sur 27 Sudoeste 2.4 -- -- 84
2019-04-23 18:00:00 13.8 14 Sudoeste 22 Sudoeste 0 -- -- 78
2019-04-23 17:00:00 15.7 5 Nordeste 16 Nordeste 0 -- -- 70
2019-04-23 16:00:00 16.4 8 Nordeste 17 Nordeste 0 -- -- 69
2019-04-23 15:00:00 14.7 5 Nordeste 10 Nordeste 0 -- -- 75
2019-04-23 14:00:00 13.3 4 Nordeste 10 Norte 0 -- -- 82
2019-04-23 13:00:00 11.8 4 Norte 8 Norte 0.2 -- -- 91
2019-04-23 12:00:00 11 4 Norte 10 Nordeste 1 -- -- 96
2019-04-23 11:00:00 10.5 5 Nordeste 8 Este 0.8 -- -- 93
2019-04-23 10:00:00 10.5 2 Oeste 8 Sudoeste 0 -- -- 92
2019-04-23 09:00:00 9.9 3 Sur 6 Sur 0 -- -- 94
2019-04-23 08:00:00 9.4 3 Noroeste 8 Sudoeste 0 -- -- 95
2019-04-23 07:00:00 9.3 4 Nordeste 5 Nordeste 0 -- -- 95
2019-04-23 06:00:00 9.4 0 Calma 2 Nordeste 0 -- -- 94
2019-04-23 05:00:00 9.6 0 Calma 4 Sudeste 0 -- -- 93
2019-04-23 04:00:00 9.8 0 Calma 4 Norte 0 -- -- 93
2019-04-23 03:00:00 10 4 Sudeste 5 Sur 0 -- -- 89
2019-04-23 02:00:00 10.4 3 Sudeste 4 Sudeste 0 -- -- 89
2019-04-23 01:00:00 10.7 0 Calma 8 Sudoeste 0 -- -- 87
2019-04-23 00:00:00 11.1 4 Sur 7 Sudeste 0 -- -- 83
2019-04-22 23:00:00 11.6 0 Calma 5 Sudeste 0 -- -- 79
2019-04-22 22:00:00 12.2 3 Nordeste 15 Sudoeste 0 -- -- 76
2019-04-22 21:00:00 12.5 10 Sur 17 Sudoeste 0 -- -- 74
2019-04-22 20:00:00 13.4 9 Sudoeste 17 Sudoeste 0 -- -- 69
2019-04-22 19:00:00 14.7 10 Sudoeste 18 Sur 0 -- -- 64
2019-04-22 18:00:00 16.1 8 Sudeste 14 Sudeste 0 -- -- 58
2019-04-22 17:00:00 16.5 8 Sudoeste 14 Sudoeste 0 -- -- 55
2019-04-22 16:00:00 16.8 8 Sudoeste 18 Oeste 0 -- -- 54
2019-04-22 15:00:00 16.4 4 Oeste 16 Sudoeste 0 -- -- 53
2019-04-22 14:00:00 14.6 5 Sudoeste 12 Sur 0 -- -- 65
2019-04-22 13:00:00 12 4 Oeste 9 Oeste 0 -- -- 80
2019-04-22 12:00:00 11 5 Nordeste 7 Nordeste 0 -- -- 85
2019-04-22 11:00:00 9.9 3 Noroeste 5 Nordeste 0 -- -- 88
2019-04-22 10:00:00 8.7 2 Este 6 Sudeste 0.2 -- -- 95
2019-04-22 09:00:00 7.4 3 Nordeste 6 Noroeste 0.4 -- -- 95
2019-04-22 08:00:00 6.9 5 Sudeste 7 Sur 0 -- -- 96
2019-04-22 07:00:00 7 5 Nordeste 9 Nordeste 0 -- -- 92
2019-04-22 06:00:00 6.2 4 Sur 10 Sudeste 0 -- -- 95
2019-04-22 05:00:00 6.9 4 Sudeste 8 Este 0 -- -- 93
2019-04-22 04:00:00 6.8 5 Este 8 Este 0 -- -- 95
2019-04-22 03:00:00 7 3 Sudeste 7 Nordeste 0 -- -- 94
2019-04-22 02:00:00 7.3 2 Sudeste 6 Sur 0 -- -- 93
2019-04-22 01:00:00 8.4 4 Sur 6 Sur 0 -- -- 88
2019-04-22 00:00:00 9.5 0 Calma 5 Sudeste 0 -- -- 89
2019-04-21 23:00:00 10 2 Sudeste 5 Nordeste 0 -- -- 86
2019-04-21 22:00:00 10.6 3 Norte 5 Sur 0 -- -- 85
2019-04-21 21:00:00 11.5 4 Sur 6 Sur 0 -- -- 79
2019-04-21 20:00:00 12.6 0 Calma 4 Sur 0 -- -- 74
2019-04-21 19:00:00 12.7 3 Sudoeste 5 Oeste 0 -- -- 67
2019-04-21 18:00:00 13.2 4 Sudoeste 7 Sur 0 -- -- 64
2019-04-21 17:00:00 13.3 2 Sudoeste 6 Sudoeste 0 -- -- 61
2019-04-21 16:00:00 13 4 Sudoeste 8 Sudoeste 0 -- -- 70
2019-04-21 15:00:00 13 2 Noroeste 6 Noroeste 0 -- -- 70
2019-04-21 14:00:00 11.9 2 Noroeste 6 Noroeste 0 -- -- 76
2019-04-21 13:00:00 11.2 3 Sudoeste 8 Sudoeste 0 -- -- 78
2019-04-21 12:00:00 10.1 4 Oeste 6 Oeste 0 -- -- 90
2019-04-21 11:00:00 9.1 3 Sudoeste 5 Oeste 0 -- -- 90
2019-04-21 10:00:00 8.4 3 Sur 8 Sudeste 0.2 -- -- 96
2019-04-21 09:00:00 7.8 4 Norte 7 Nordeste 0.8 -- -- 97
2019-04-21 08:00:00 7.5 3 Norte 6 Nordeste 0 -- -- 97
2019-04-21 07:00:00 7.5 0 Calma 4 Norte 0 -- -- 97
2019-04-21 06:00:00 7.6 2 Oeste 4 Sudoeste 0 -- -- 96
2019-04-21 05:00:00 7.8 3 Sur 7 Sudeste 0.4 -- -- 94
2019-04-21 04:00:00 7.9 2 Nordeste 12 Este 0 -- -- 94
2019-04-21 03:00:00 8.2 3 Norte 5 Nordeste 0.8 -- -- 96
2019-04-21 02:00:00 8.4 2 Este 4 Nordeste 1.2 -- -- 94
2019-04-21 01:00:00 8.6 0 Calma 8 Oeste 1.4 -- -- 93
2019-04-21 00:00:00 8.8 6 Oeste 12 Oeste 0.6 -- -- 92
2019-04-20 23:00:00 9.4 9 Oeste 22 Oeste 0 -- -- 88
2019-04-20 22:00:00 11.3 11 Sur 19 Sur 0 -- -- 73
2019-04-20 21:00:00 12.9 8 Sudoeste 17 Sur 0 -- -- 64
2019-04-20 20:00:00 13.7 12 Sur 18 Oeste 0 -- -- 59
2019-04-20 19:00:00 15.3 10 Sudoeste 19 Sur 0 -- -- 54
2019-04-20 18:00:00 16.4 5 Sudeste 24 Sudeste 0 -- -- 44
2019-04-20 17:00:00 17.4 11 Sudeste 21 Sur 0 -- -- 40
2019-04-20 16:00:00 19.4 10 Sudeste 30 Sudeste 0 -- -- 37
2019-04-20 15:00:00 19.8 10 Sur 26 Sur 0 -- -- 38
2019-04-20 14:00:00 19.5 10 Sudoeste 23 Sudoeste 0 -- -- 42
2019-04-20 13:00:00 18.9 5 Sudoeste 14 Oeste 0 -- -- 40
2019-04-20 12:00:00 17.3 4 Oeste 9 Sudoeste 0 -- -- 43
2019-04-20 11:00:00 14.7 0 Calma 5 Norte 0 -- -- 50
2019-04-20 10:00:00 11.3 2 Norte 6 Nordeste 0 -- -- 67
2019-04-20 09:00:00 7.8 0 Calma 7 Nordeste 0 -- -- 78
2019-04-20 08:00:00 6.4 6 Nordeste 12 Nordeste 0 -- -- 80
2019-04-20 07:00:00 5.7 6 Este 10 Este 0 -- -- 80
2019-04-20 06:00:00 5.6 5 Este 8 Nordeste 0 -- -- 82
2019-04-20 05:00:00 6.4 3 Este 6 Este 0 -- -- 79
2019-04-20 04:00:00 7.1 3 Este 8 Este 0 -- -- 76
2019-04-20 03:00:00 7.3 5 Nordeste 9 Nordeste 0 -- -- 75
2019-04-20 02:00:00 7.7 6 Este 11 Este 0 -- -- 72
2019-04-20 01:00:00 7.7 2 Este 11 Este 0 -- -- 73
2019-04-20 00:00:00 9.4 5 Este 9 Nordeste 0 -- -- 66
2019-04-19 23:00:00 9.5 4 Nordeste 7 Nordeste 0 -- -- 66
2019-04-19 22:00:00 10.7 3 Norte 6 Sudeste 0 -- -- 65
2019-04-19 21:00:00 14.7 2 Noroeste 16 Sudeste 0 -- -- 51
2019-04-19 20:00:00 17.5 8 Sur 18 Sur 0 -- -- 39
2019-04-19 19:00:00 19.3 8 Oeste 15 Oeste 0 -- -- 39
2019-04-19 18:00:00 19.2 7 Oeste 15 Oeste 0 -- -- 42
2019-04-19 17:00:00 19.3 8 Oeste 12 Oeste 0 -- -- 42
2019-04-19 16:00:00 18.6 5 Sudoeste 11 Sudoeste 0 -- -- 43
2019-04-19 15:00:00 17.9 0 Calma 10 Oeste 0 -- -- 41
2019-04-19 14:00:00 17.4 0 Calma 11 Oeste 0 -- -- 47
2019-04-19 13:00:00 15.6 9 Oeste 13 Sudoeste 0 -- -- 61
2019-04-19 12:00:00 14.7 2 Oeste 13 Oeste 0 -- -- 60
2019-04-19 11:00:00 11.9 2 Nordeste 8 Sur 0 -- -- 65
2019-04-19 10:00:00 11 3 Oeste 9 Norte 0 -- -- 65
2019-04-19 09:00:00 9.9 6 Nordeste 11 Nordeste 0 -- -- 65
2019-04-19 08:00:00 8.9 6 Este 12 Este 0 -- -- 67
2019-04-19 07:00:00 8.7 4 Oeste 13 Nordeste 0 -- -- 68
2019-04-19 06:00:00 9.7 7 Nordeste 12 Este 0 -- -- 64
2019-04-19 05:00:00 10.4 5 Nordeste 10 Nordeste 0 -- -- 61
2019-04-19 04:00:00 11.2 2 Noroeste 13 Sudoeste 0 -- -- 58
2019-04-19 03:00:00 11.7 3 Oeste 11 Norte 0 -- -- 61
2019-04-19 02:00:00 12.2 6 Norte 19 Nordeste 0 -- -- 54
2019-04-19 01:00:00 11.4 4 Sudeste 12 Sur 0 -- -- 69
2019-04-19 00:00:00 12.3 5 Sudoeste 12 Sur 0 -- -- 64
2019-04-18 23:00:00 12.2 2 Nordeste -- -- 0 -- -- 64
2019-04-18 22:00:00 12.6 4 Sudoeste 9 Nordeste 0 -- -- 66
2019-04-18 21:00:00 14.2 4 Nordeste 13 Este 0 -- -- 58
2019-04-18 20:00:00 15.5 4 Nordeste 21 Norte 0 -- -- 52
2019-04-18 19:00:00 16 8 Nordeste 18 Este 0 -- -- 52
2019-04-18 18:00:00 17.2 11 Este 29 Nordeste 0 -- -- 42
2019-04-18 17:00:00 17.3 6 Sudeste 21 Sudeste 0 -- -- 44
2019-04-18 16:00:00 18.2 6 Este 29 Este 0 -- -- 44
2019-04-18 15:00:00 17.7 11 Este 33 Este 0 -- -- 45
2019-04-18 14:00:00 17.2 17 Este 37 Este 0 -- -- 50
2019-04-18 13:00:00 15.5 18 Este 30 Este 0 -- -- 52
2019-04-18 12:00:00 12.9 8 Este 16 Norte 0 -- -- 71
2019-04-18 11:00:00 11.5 4 Sudoeste 10 Sudoeste 0 -- -- 80
2019-04-18 10:00:00 10.4 4 Oeste 9 Oeste 0 -- -- 88
2019-04-18 09:00:00 7.8 0 Calma 5 Sudeste 0 -- -- 94
2019-04-18 08:00:00 7.2 0 Calma 7 Nordeste 0 -- -- 94
2019-04-18 07:00:00 7 4 Este 10 Norte 0 -- -- 92
2019-04-18 06:00:00 7.5 5 Este 9 Este 0 -- -- 94
2019-04-18 05:00:00 7.4 0 Calma 9 Sudeste 0 -- -- 92
2019-04-18 04:00:00 7.5 2 Norte 9 Nordeste 0 -- -- 89
2019-04-18 03:00:00 9.5 6 Nordeste 10 Este 0 -- -- 86
2019-04-18 02:00:00 10.7 5 Sudoeste 16 Sudoeste 0 -- -- 82
2019-04-18 01:00:00 10.9 4 Nordeste 10 Nordeste 0 -- -- 81
2019-04-18 00:00:00 12 3 Nordeste 11 Este 0 -- -- 75
2019-04-17 23:00:00 13.4 6 Este 18 Este 0 -- -- 68
2019-04-17 22:00:00 13.9 7 Nordeste 21 Sudeste 0 -- -- 66
2019-04-17 21:00:00 15.5 4 Este 18 Este 0 -- -- 60
2019-04-17 20:00:00 17.3 7 Sudeste 19 Sudeste 0 -- -- 54
2019-04-17 19:00:00 18.7 8 Sudeste 23 Sur 0 -- -- 52
2019-04-17 18:00:00 20.4 6 Sudeste 17 Sudeste 0 -- -- 45
2019-04-17 17:00:00 21 6 Este 19 Este 0 -- -- 42
2019-04-17 16:00:00 20.1 11 Nordeste 22 Este 0 -- -- 43
2019-04-17 15:00:00 19.2 9 Este 20 Este 0 -- -- 47
2019-04-17 14:00:00 18 11 Nordeste 20 Nordeste 0 -- -- 51
2019-04-17 13:00:00 17.3 8 Nordeste 18 Este 0 -- -- 52
2019-04-17 12:00:00 16.1 11 Nordeste 23 Este 0 -- -- 55
2019-04-17 11:00:00 15.2 9 Este 24 Este 0 -- -- 58
2019-04-17 10:00:00 11.5 5 Oeste 10 Noroeste 0 -- -- 80
2019-04-17 09:00:00 8.5 4 Este 9 Este 0 -- -- 90
2019-04-17 08:00:00 5.3 3 Nordeste 6 Sudeste 0 -- -- 95
2019-04-17 07:00:00 3.8 3 Nordeste 6 Nordeste 0 -- -- 95
2019-04-17 06:00:00 4.8 2 Sudeste 4 Sur 0 -- -- 94
2019-04-17 05:00:00 5.6 0 Calma 8 Nordeste 0 -- -- 92
2019-04-17 04:00:00 6 3 Este 8 Este 0 -- -- 92
2019-04-17 03:00:00 6 0 Calma 10 Nordeste 0 -- -- 90
2019-04-17 02:00:00 7.4 4 Este 9 Nordeste 0 -- -- 87
2019-04-17 01:00:00 8.4 2 Nordeste 7 Este 0 -- -- 83
2019-04-17 00:00:00 10 5 Norte 14 Este 0 -- -- 76
2019-04-16 23:00:00 11.6 6 Este 12 Sur 0 -- -- 67
2019-04-16 22:00:00 13.4 3 Norte 26 Sudeste 0 -- -- 66
2019-04-16 21:00:00 14.6 12 Sudeste 24 Sudeste 0 -- -- 58
2019-04-16 20:00:00 15.5 10 Sudeste 22 Sudeste 0 -- -- 58
2019-04-16 19:00:00 15.9 8 Sur 19 Sur 0 -- -- 58
2019-04-16 18:00:00 17.1 10 Sudoeste 26 Sur 0 -- -- 55
2019-04-16 17:00:00 17.7 4 Nordeste 12 Nordeste 0 -- -- 52
2019-04-16 16:00:00 17.3 5 Norte 11 Norte 0 -- -- 55
2019-04-16 15:00:00 14.9 4 Sudoeste 8 Sudoeste 0 -- -- 63
2019-04-16 14:00:00 13.8 2 Este 6 Norte 0 -- -- 67
2019-04-16 13:00:00 13.5 3 Sur 12 Nordeste 0 -- -- 68
2019-04-16 12:00:00 13 4 Este 9 Oeste 0 -- -- 68
2019-04-16 11:00:00 11.1 6 Noroeste 12 Noroeste 0 -- -- 80
2019-04-16 10:00:00 10.5 6 Oeste 10 Oeste 0 -- -- 74
2019-04-16 09:00:00 9.2 0 Calma 7 Sudoeste 0 -- -- 85
2019-04-16 08:00:00 8.1 0 Calma 5 Oeste 0 -- -- 97
2019-04-16 07:00:00 8.2 3 Sudoeste 4 Sur 0 -- -- 96
2019-04-16 06:00:00 8 2 Norte 4 Norte 0 -- -- 96
2019-04-16 05:00:00 7.9 2 Este 7 Sur 0 -- -- 96
2019-04-16 04:00:00 7.4 2 Sudoeste 7 Norte 0 -- -- 96
2019-04-16 03:00:00 7.5 4 Sur 16 Este 0 -- -- 94
2019-04-16 02:00:00 7.8 9 Nordeste 21 Nordeste 0 -- -- 91
2019-04-16 01:00:00 8.4 8 Este 18 Este 1.2 -- -- 95
2019-04-16 00:00:00 8.8 14 Oeste 31 Nordeste 4.8 -- -- 91
2019-04-15 23:00:00 10.7 14 Este 31 Este 1 -- -- 72
2019-04-15 22:00:00 11.9 14 Sudoeste 40 Oeste 0.2 -- -- 65
2019-04-15 21:00:00 13.3 9 Sudeste 21 Este 0 -- -- 50
2019-04-15 20:00:00 14.9 5 Este 26 Sudeste 0 -- -- 51
2019-04-15 19:00:00 16.4 14 Este 31 Sudeste 0 -- -- 49
2019-04-15 18:00:00 18.9 11 Sudeste 24 Sudeste 0 -- -- 48
2019-04-15 17:00:00 19.6 9 Sudeste 21 Sudeste 0 -- -- 48
2019-04-15 16:00:00 19.6 9 Sudeste 18 Sudeste 0 -- -- 48
2019-04-15 15:00:00 19.1 5 Este -- -- -- -- -- 48
2019-04-15 14:00:00 18.5 6 Nordeste 15 Sudoeste 0 -- -- 53
2019-04-15 13:00:00 16.6 9 Oeste 18 Oeste 0 -- -- 64
2019-04-15 12:00:00 16.7 11 Sur 18 Sur 0 -- -- 63
2019-04-15 11:00:00 14.5 6 Oeste 11 Oeste 0 -- -- 65
2019-04-15 10:00:00 12.9 4 Sudoeste 7 Sudoeste 0 -- -- 71
2019-04-15 09:00:00 9.3 4 Sudeste 7 Este 0 -- -- 80
2019-04-15 08:00:00 6.9 2 Nordeste 10 Sudeste 0 -- -- 84
2019-04-15 07:00:00 7.3 5 Sudeste 9 Sudeste 0 -- -- 83
2019-04-15 06:00:00 6.8 2 Este 12 Sur 0 -- -- 83
2019-04-15 05:00:00 8.1 5 Este 10 Este 0 -- -- 80
2019-04-15 04:00:00 8.5 4 Nordeste 10 Este 0 -- -- 77
2019-04-15 03:00:00 8.5 3 Sudeste 10 Sudeste 0 -- -- 78
2019-04-15 02:00:00 10.2 4 Sudeste 10 Nordeste 0 -- -- 72
2019-04-15 01:00:00 12.1 7 Nordeste 15 Este 0 -- -- 64
2019-04-15 00:00:00 11.6 5 Nordeste 11 Este 0 -- -- 68
2019-04-14 23:00:00 11.7 0 Calma 9 Este 0 -- -- 70
2019-04-14 22:00:00 13.3 3 Este 7 Nordeste 0 -- -- 64
2019-04-14 21:00:00 16.6 3 Sur 19 Este 0 -- -- 54
2019-04-14 20:00:00 20.9 11 Este 28 Este 0 -- -- 43
2019-04-14 19:00:00 22 13 Sudoeste 33 Sudoeste 0 -- -- 43
2019-04-14 18:00:00 23.1 19 Sudoeste 31 Sudoeste 0 -- -- 40
2019-04-14 17:00:00 22.6 15 Sudoeste 25 Sudoeste 0 -- -- 41
2019-04-14 16:00:00 22.8 15 Sudoeste 27 Sur 0 -- -- 43
2019-04-14 15:00:00 20.6 14 Sudoeste 24 Sudoeste 0 -- -- 43
2019-04-14 14:00:00 19.3 12 Oeste 27 Sur 0 -- -- 43
2019-04-14 13:00:00 18.2 17 Sudoeste 28 Oeste 0 -- -- 39
2019-04-14 12:00:00 16.4 9 Sudoeste 15 Sudoeste 0 -- -- 37
2019-04-14 11:00:00 13.8 2 Norte 11 Sudoeste 0 -- -- 43
2019-04-14 10:00:00 9.5 5 Oeste 8 Oeste 0 -- -- 49
2019-04-14 09:00:00 7.2 3 Este 9 Este 0 -- -- 51
2019-04-14 08:00:00 4.6 5 Nordeste 7 Nordeste 0 -- -- 56
2019-04-14 07:00:00 4.3 4 Nordeste 10 Este 0 -- -- 54
2019-04-14 06:00:00 4 3 Nordeste 10 Nordeste 0 -- -- 58
2019-04-14 05:00:00 3.5 4 Nordeste 10 Nordeste 0 -- -- 60
2019-04-14 04:00:00 4.1 7 Este 12 Este 0 -- -- 57
2019-04-14 03:00:00 4.1 9 Nordeste 13 Nordeste 0 -- -- 59
2019-04-14 02:00:00 4.5 4 Este 12 Nordeste 0 -- -- 61
2019-04-14 01:00:00 5.9 5 Nordeste 12 Nordeste 0 -- -- 51
2019-04-14 00:00:00 5.6 2 Nordeste 13 Nordeste 0 -- -- 59
2019-04-13 23:00:00 8 4 Este 12 Nordeste 0 -- -- 52
2019-04-13 22:00:00 11 6 Este 10 Nordeste 0 -- -- 40
2019-04-13 21:00:00 11.9 2 Oeste 9 Sur 0 -- -- 41
2019-04-13 20:00:00 17.9 7 Sudoeste 29 Sudoeste 0 -- -- 25
2019-04-13 19:00:00 18.5 16 Sudoeste 34 Sudoeste 0 -- -- 26
2019-04-13 18:00:00 19.2 14 Sudoeste 33 Oeste 0 -- -- 23
2019-04-13 17:00:00 19.2 19 Sudoeste 37 Sur 0 -- -- 26
2019-04-13 16:00:00 18.6 19 Sudoeste 33 Sudoeste 0 -- -- 29
2019-04-13 15:00:00 18.1 16 Sudoeste 27 Sudoeste 0 -- -- 28
2019-04-13 14:00:00 17.4 10 Sudoeste 22 Sudoeste 0 -- -- 28
2019-04-13 13:00:00 16.3 13 Oeste 19 Oeste 0 -- -- 25
2019-04-13 12:00:00 14.1 12 Sudoeste 17 Oeste 0 -- -- 37
2019-04-13 11:00:00 11.5 2 Noroeste 6 Noroeste 0 -- -- 36
2019-04-13 10:00:00 7.8 0 Calma 5 Nordeste 0 -- -- 43
2019-04-13 09:00:00 4 4 Nordeste 13 Nordeste 0 -- -- 49
2019-04-13 08:00:00 -0.1 7 Este 11 Este 0 -- -- 61
2019-04-13 07:00:00 -0.2 2 Nordeste 12 Nordeste 0 -- -- 62
2019-04-13 06:00:00 -0.2 4 Este 9 Este 0 -- -- 64
2019-04-13 05:00:00 1.1 6 Este 13 Este 0 -- -- 57
2019-04-13 04:00:00 1.2 5 Este 9 Sudeste 0 -- -- 58
2019-04-13 03:00:00 2.8 6 Sudeste 13 Nordeste 0 -- -- 51
2019-04-13 02:00:00 3.9 8 Nordeste 16 Nordeste 0 -- -- 50
2019-04-13 01:00:00 5.8 8 Este 13 Este 0 -- -- 45
2019-04-13 00:00:00 7.8 9 Este 17 Este 0 -- -- 36
2019-04-12 23:00:00 10 8 Este 28 Este 0 -- -- 29
2019-04-12 22:00:00 12.2 13 Este 24 Este 0 -- -- 25
2019-04-12 21:00:00 13 10 Nordeste 27 Nordeste 0 -- -- 26
2019-04-12 20:00:00 16.4 8 Sur 25 Sudoeste 0 -- -- 34
2019-04-12 19:00:00 17.8 13 Sudoeste 27 Sur 0 -- -- 32
2019-04-12 18:00:00 18.5 15 Sudoeste 24 Sudoeste 0 -- -- 30
2019-04-12 17:00:00 18.6 12 Sudoeste 27 Oeste 0 -- -- 32
2019-04-12 16:00:00 17.9 15 Sudoeste 27 Sudoeste 0 -- -- 33
2019-04-12 15:00:00 17.1 15 Sudoeste 24 Sudoeste 0 -- -- 33
2019-04-12 14:00:00 16.2 15 Sudoeste 26 Oeste 0 -- -- 37
2019-04-12 13:00:00 15.6 11 Oeste 19 Sudoeste 0 -- -- 33
2019-04-12 12:00:00 14 10 Sudoeste 17 Sudoeste 0 -- -- 39
2019-04-12 11:00:00 11.2 9 Sudoeste 12 Sudoeste 0 -- -- 53
2019-04-12 10:00:00 8.3 3 Nordeste 9 Oeste 0 -- -- 66
2019-04-12 09:00:00 5 3 Sudeste 8 Oeste 0 -- -- 77
2019-04-12 08:00:00 1.5 4 Nordeste 9 Este 0 -- -- 86
2019-04-12 07:00:00 1.9 4 Nordeste 12 Este 0 -- -- 83
2019-04-12 06:00:00 1.4 4 Nordeste 8 Norte 0 -- -- 88
2019-04-12 05:00:00 2.7 8 Este 13 Este 0 -- -- 83
2019-04-12 04:00:00 2.8 6 Nordeste 10 Nordeste 0 -- -- 82
2019-04-12 03:00:00 2.8 4 Sudeste 8 Nordeste 0 -- -- 82
2019-04-12 02:00:00 3.1 3 Sudoeste 8 Sur 0 -- -- 80
2019-04-12 01:00:00 4.1 2 Norte 5 Nordeste 0 -- -- 77
2019-04-12 00:00:00 4.6 3 Sudeste 8 Sur 0 -- -- 76
2019-04-11 23:00:00 6.4 3 Nordeste 11 Este 0 -- -- 70
2019-04-11 22:00:00 7.6 3 Nordeste 6 Sur 0 -- -- 68
2019-04-11 21:00:00 10.1 8 Sur 11 Sur 0 -- -- 54
2019-04-11 20:00:00 12.5 3 Noroeste 15 Noroeste 0 -- -- 45
2019-04-11 19:00:00 13.7 6 Noroeste 21 Norte 0 -- -- 41
2019-04-11 18:00:00 14.6 9 Noroeste 22 Noroeste 0 -- -- 35
2019-04-11 17:00:00 15.2 10 Noroeste 28 Noroeste 0 -- -- 33
2019-04-11 16:00:00 16.2 13 Nordeste 27 Nordeste 0 -- -- 31
2019-04-11 15:00:00 17.3 13 Nordeste 23 Nordeste 0 -- -- 25
2019-04-11 14:00:00 17 10 Nordeste 20 Nordeste 0 -- -- 27
2019-04-11 13:00:00 15.1 7 Sur 18 Sur 0 -- -- 31
2019-04-11 12:00:00 13.5 7 Sudoeste 15 Sudoeste 0 -- -- 32
2019-04-11 11:00:00 10.7 7 Sudoeste 13 Oeste 0 -- -- 52
2019-04-11 10:00:00 6 4 Noroeste 8 Oeste 0 -- -- 79
2019-04-11 09:00:00 2.7 2 Norte 9 Este 0 -- -- 83
2019-04-11 08:00:00 1.1 4 Nordeste 9 Nordeste 0 -- -- 86
2019-04-11 07:00:00 0.1 2 Este 6 Nordeste 0 -- -- 87
2019-04-11 06:00:00 0.8 3 Este 8 Nordeste 0 -- -- 89
2019-04-11 05:00:00 0.9 3 Nordeste 6 Sur 0 -- -- 87
2019-04-11 04:00:00 1.5 2 Noroeste 9 Este 0 -- -- 84
2019-04-11 03:00:00 3.2 5 Sudeste 9 Este 0 -- -- 79
2019-04-11 02:00:00 3.4 6 Nordeste 11 Este 0 -- -- 77
2019-04-11 01:00:00 5 4 Nordeste 17 Oeste 0 -- -- 69
2019-04-11 00:00:00 5.5 6 Este 10 Este 0 -- -- 70
2019-04-10 23:00:00 6.4 2 Nordeste 12 Este 0 -- -- 68
2019-04-10 22:00:00 7.9 4 Noroeste 13 Este 0 -- -- 69
2019-04-10 21:00:00 9.1 3 Sudeste 8 Este 0 -- -- 68
2019-04-10 20:00:00 11.4 0 Calma 5 Oeste 0 -- -- 61
2019-04-10 19:00:00 11.6 4 Oeste 17 Sudoeste 0 -- -- 58
2019-04-10 18:00:00 12 13 Sudoeste 25 Sur 0 -- -- 54
2019-04-10 17:00:00 13.8 12 Sur 23 Sur 0 -- -- 50
2019-04-10 16:00:00 13.7 14 Sur 28 Sur 0 -- -- 54
2019-04-10 15:00:00 14 9 Sudoeste 19 Oeste 0.2 -- -- 53
2019-04-10 14:00:00 14.8 9 Sudoeste 19 Sudoeste 0 -- -- 36
2019-04-10 13:00:00 14.8 9 Sudoeste 17 Oeste 0 -- -- 39
2019-04-10 12:00:00 13.7 7 Sudoeste 15 Sudoeste 0 -- -- 48
2019-04-10 11:00:00 11.1 7 Sudoeste 12 Oeste 0 -- -- 64
2019-04-10 10:00:00 9.1 2 Sudoeste 6 Nordeste 0 -- -- 71
2019-04-10 09:00:00 6.7 5 Nordeste 8 Norte 0 -- -- 81
2019-04-10 08:00:00 3.8 0 Calma 8 Este 0 -- -- 92
2019-04-10 07:00:00 3.3 4 Sudeste 8 Este 0 -- -- 93
2019-04-10 06:00:00 2.8 4 Nordeste 10 Nordeste 0 -- -- 94
2019-04-10 05:00:00 2.9 3 Este 6 Nordeste 0 -- -- 90
2019-04-10 04:00:00 3.9 3 Este 9 Nordeste 0 -- -- 88
2019-04-10 03:00:00 5 5 Nordeste 12 Nordeste 0 -- -- 88
2019-04-10 02:00:00 5.1 0 Calma 6 Norte 0 -- -- 86
2019-04-10 01:00:00 6.6 5 Nordeste 17 Norte 0 -- -- 81
2019-04-10 00:00:00 7.8 8 Nordeste 22 Nordeste 0 -- -- 75
2019-04-09 23:00:00 8.6 13 Este 27 Norte 0 -- -- 69
2019-04-09 22:00:00 8.1 13 Nordeste 24 Norte 0 -- -- 74
2019-04-09 21:00:00 8.2 12 Nordeste 25 Nordeste 0 -- -- 74
2019-04-09 20:00:00 10.5 16 Nordeste 32 Este 0 -- -- 62
2019-04-09 19:00:00 12 17 Nordeste 37 Este 0 -- -- 53
2019-04-09 18:00:00 16.5 17 Sur 42 Sur 0 -- -- 37
2019-04-09 17:00:00 16 24 Sur 44 Sur 0 -- -- 42
2019-04-09 16:00:00 16.3 25 Sudoeste 42 Sur 0 -- -- 39
2019-04-09 15:00:00 15.9 21 Sur 37 Sudoeste 0 -- -- 43
2019-04-09 14:00:00 15.1 20 Sudoeste 31 Sur 0 -- -- 46
2019-04-09 13:00:00 14.4 14 Sudoeste 25 Sudoeste 0 -- -- 48
2019-04-09 12:00:00 13.1 9 Sudoeste 18 Sudoeste 0 -- -- 54
2019-04-09 11:00:00 11.1 6 Sudoeste 15 Sudoeste 0 -- -- 66
2019-04-09 10:00:00 8.6 0 Calma 8 Este 0 -- -- 80
2019-04-09 09:00:00 5.6 4 Este -- -- -- -- -- 88
2019-04-09 08:00:00 5.2 3 Este 10 Este 0 -- -- 90
2019-04-09 07:00:00 5.2 4 Este 8 Nordeste 0 -- -- 90
2019-04-09 06:00:00 5.3 5 Sudeste 12 Este 0 -- -- 92
2019-04-09 05:00:00 5.3 10 Sudoeste 19 Sudoeste 0 -- -- 91
2019-04-09 04:00:00 5.9 4 Este 10 Este 0 -- -- 88
2019-04-09 03:00:00 6.3 3 Norte 13 Nordeste 0 -- -- 83
2019-04-09 02:00:00 6.5 6 Este 11 Este 0 -- -- 84
2019-04-09 01:00:00 7.3 6 Este 9 Este 0 -- -- 80
2019-04-09 00:00:00 7.8 4 Este 8 Nordeste 0 -- -- 80
2019-04-08 23:00:00 9.7 4 Nordeste 14 Sudoeste 0 -- -- 68
2019-04-08 22:00:00 10.1 7 Sudoeste 17 Sudoeste 0 -- -- 67
2019-04-08 21:00:00 12.4 8 Sudoeste 18 Sudoeste 0 -- -- 62
2019-04-08 20:00:00 14.2 7 Sur 29 Oeste 0 -- -- 52
2019-04-08 19:00:00 14.8 12 Sudoeste 22 Oeste 0 -- -- 53
2019-04-08 18:00:00 16 11 Sudoeste 22 Sur 0 -- -- 54
2019-04-08 17:00:00 15.9 9 Oeste 24 Oeste 0 -- -- 56
2019-04-08 16:00:00 15.1 13 Sudoeste 27 Sudoeste 0 -- -- 61
2019-04-08 15:00:00 13.4 14 Sudoeste 24 Sudoeste 0 -- -- 63
2019-04-08 14:00:00 13.1 13 Sudoeste 23 Oeste 0 -- -- 60
2019-04-08 13:00:00 12.2 12 Sudoeste 19 Oeste 0 -- -- 58
2019-04-08 12:00:00 11.5 10 Sudoeste 18 Sudoeste 0 -- -- 58
2019-04-08 11:00:00 9.8 6 Sudoeste 11 Sudoeste 0 -- -- 70
2019-04-08 10:00:00 7.1 4 Oeste 6 Oeste 0 -- -- 83
2019-04-08 09:00:00 5.2 3 Este 6 Nordeste 0 -- -- 88
2019-04-08 08:00:00 3.4 0 Calma 4 Noroeste 0 -- -- 94
2019-04-08 07:00:00 3.2 2 Este 6 Nordeste 0 -- -- 93
2019-04-08 06:00:00 3.1 5 Este 8 Sudeste 0 -- -- 93
2019-04-08 05:00:00 2.6 4 Este 8 Nordeste 0 -- -- 93
2019-04-08 04:00:00 2.1 0 Calma 6 Este 0 -- -- 90
2019-04-08 03:00:00 3.4 2 Este 9 Nordeste 0 -- -- 89
2019-04-08 02:00:00 4.1 6 Sudeste 10 Nordeste 0 -- -- 89
2019-04-08 01:00:00 3.9 4 Sudeste 8 Este 0 -- -- 89
2019-04-08 00:00:00 5.2 4 Este 16 Nordeste 0 -- -- 84
2019-04-07 23:00:00 6.3 3 Este 9 Este 0 -- -- 81
2019-04-07 22:00:00 7.6 3 Nordeste 11 Sudoeste 0 -- -- 75
2019-04-07 21:00:00 10.4 12 Sur 23 Sudeste 0 -- -- 60
2019-04-07 20:00:00 11.6 13 Sur 19 Sur 0 -- -- 55
2019-04-07 19:00:00 14.2 10 Sudoeste 14 Sur 0 -- -- 45
2019-04-07 18:00:00 13.7 6 Nordeste 12 Norte 0 -- -- 50
2019-04-07 17:00:00 11.1 4 Sudeste 28 Noroeste 0 -- -- 56
2019-04-07 16:00:00 12.9 10 Sudoeste 24 Sudoeste 0 -- -- 46
2019-04-07 15:00:00 13.6 11 Sudoeste 24 Sudoeste 0 -- -- 51
2019-04-07 14:00:00 12.5 13 Sudoeste 25 Sudoeste 0 -- -- 53
2019-04-07 13:00:00 10.7 10 Sudoeste 18 Sudoeste 0 -- -- 66
2019-04-07 12:00:00 9.2 10 Sudoeste 17 Sudoeste 0 -- -- 74
2019-04-07 11:00:00 7.2 7 Sudoeste 13 Sudoeste 0 -- -- 83
2019-04-07 10:00:00 5.7 2 Este 9 Norte 0 -- -- 87
2019-04-07 09:00:00 3.1 3 Nordeste 4 Nordeste 0 -- -- 99
2019-04-07 08:00:00 0.2 2 Sur 8 Este 0 -- -- 98
2019-04-07 07:00:00 1.2 4 Este 9 Este 0 -- -- 98
2019-04-07 06:00:00 1.9 3 Sudeste -- -- -- -- -- 98
2019-04-07 05:00:00 2.2 6 Sur 9 Sur 0 -- -- 97
2019-04-07 04:00:00 2.8 5 Nordeste 8 Nordeste 0 -- -- 96
2019-04-07 03:00:00 2.9 3 Sudeste 9 Nordeste 0 -- -- 96
2019-04-07 02:00:00 3.1 5 Nordeste 9 Nordeste 0 -- -- 94
2019-04-07 01:00:00 3.2 6 Nordeste 17 Norte 0 -- -- 94
2019-04-07 00:00:00 3.7 9 Nordeste 15 Nordeste 1.8 -- -- 94
2019-04-06 23:00:00 4.4 9 Sudoeste 16 Nordeste 2 -- -- 95
2019-04-06 22:00:00 5 9 Nordeste 24 Nordeste 0 -- -- 88
2019-04-06 21:00:00 4.8 7 Nordeste 21 Este 0 -- -- 92
2019-04-06 20:00:00 5.6 12 Nordeste 17 Sudeste 0.8 -- -- 89
2019-04-06 19:00:00 6.6 6 Norte 14 Oeste 0.6 -- -- 84
2019-04-06 18:00:00 6.3 5 Sudoeste -- -- -- -- -- 82
2019-04-06 17:00:00 9.3 5 Nordeste 10 Norte 0 -- -- 61
2019-04-06 16:00:00 8.5 6 Norte 13 Norte 0 -- -- 70
2019-04-06 15:00:00 7.4 3 Este 19 Oeste 0 -- -- 74
2019-04-06 14:00:00 6.5 12 Oeste 18 Oeste 0 -- -- 82
2019-04-06 13:00:00 6.9 5 Sudoeste 13 Sudoeste 0 -- -- 84
2019-04-06 12:00:00 5.2 3 Nordeste 6 Nordeste 0.2 -- -- 93
2019-04-06 11:00:00 3.9 2 Norte 5 Nordeste 0.2 -- -- 93
2019-04-06 10:00:00 3.1 4 Oeste 16 Sudoeste 1.6 -- -- 95
2019-04-06 09:00:00 3.3 10 Sudoeste 18 Sudoeste 2 -- -- 96
2019-04-06 08:00:00 3.4 8 Sudoeste 18 Sudoeste 0.6 -- -- 95
2019-04-06 07:00:00 3.4 7 Sudoeste 13 Sudoeste 0 -- -- 97
2019-04-06 06:00:00 2.9 0 Calma 6 Este 0.2 -- -- 96
2019-04-06 05:00:00 2.9 0 Calma 12 Norte 0 -- -- 94
2019-04-06 04:00:00 3.4 5 Nordeste 12 Sudoeste 2 -- -- 95
2019-04-06 03:00:00 4 12 Sudoeste 24 Sudoeste 3.6 -- -- 91
2019-04-06 02:00:00 5.7 5 Este 23 Nordeste 0.8 -- -- 91
2019-04-06 01:00:00 5.9 3 Nordeste 10 Sudoeste 0.6 -- -- 95
2019-04-06 00:00:00 6.2 5 Sudoeste 19 Este 0.4 -- -- 94
2019-04-05 23:00:00 6.3 3 Norte 9 Nordeste 0.4 -- -- 95
2019-04-05 22:00:00 6.2 7 Nordeste 21 Este 0.8 -- -- 94
2019-04-05 21:00:00 6.6 8 Este 23 Este 3.2 -- -- 86
2019-04-05 20:00:00 7.3 10 Sudeste 21 Sudeste 4.2 -- -- 85
2019-04-05 19:00:00 9.4 9 Sur 15 Este 0.2 -- -- 76
2019-04-05 18:00:00 11.2 7 Este 17 Este 0 -- -- 57
2019-04-05 17:00:00 10.7 4 Norte 14 Norte 0 -- -- 61
2019-04-05 16:00:00 10.8 3 Norte 14 Nordeste 0 -- -- 59
2019-04-05 15:00:00 10.6 9 Nordeste 17 Este 0 -- -- 62
2019-04-05 14:00:00 8.9 8 Este 16 Nordeste 0 -- -- 68
2019-04-05 13:00:00 8 10 Este 19 Este 0 -- -- 73
2019-04-05 12:00:00 7.3 13 Nordeste 23 Este 0.2 -- -- 78
2019-04-05 11:00:00 5.1 9 Nordeste 16 Nordeste 0.4 -- -- 85
2019-04-05 10:00:00 4.8 3 Sudoeste 8 Sur 0.2 -- -- 79
2019-04-05 09:00:00 4.5 3 Sur 12 Sudoeste 0 -- -- 71
2019-04-05 08:00:00 4 4 Oeste 14 Nordeste 0 -- -- 68
2019-04-05 07:00:00 3.9 4 Nordeste 9 Nordeste 0 -- -- 64
2019-04-05 06:00:00 3.2 0 Calma 10 Oeste 0 -- -- 73
2019-04-05 05:00:00 3.7 2 Nordeste 8 Nordeste 0 -- -- 65
2019-04-05 04:00:00 3.4 6 Nordeste 9 Este 0 -- -- 63
2019-04-05 03:00:00 3.3 3 Nordeste 10 Nordeste 0 -- -- 64
2019-04-05 02:00:00 2.9 4 Nordeste 10 Este 0 -- -- 64
2019-04-05 01:00:00 1.7 4 Sudeste 9 Nordeste 0 -- -- 69
2019-04-05 00:00:00 1.5 3 Sudeste 12 Este 0 -- -- 69
2019-04-04 23:00:00 3.7 5 Sudeste 13 Nordeste 0 -- -- 57
2019-04-04 22:00:00 3.7 8 Nordeste 12 Nordeste 0 -- -- 59
2019-04-04 21:00:00 6.5 7 Sur 15 Sudoeste 0 -- -- 51
2019-04-04 20:00:00 9.2 10 Sudoeste 24 Sudoeste 0 -- -- 40
2019-04-04 19:00:00 11.3 16 Sudoeste 28 Sudoeste 0 -- -- 37
2019-04-04 18:00:00 12.1 13 Sur 30 Sudoeste 0 -- -- 33
2019-04-04 17:00:00 12.4 13 Sur 34 Sudoeste 0 -- -- 34
2019-04-04 16:00:00 12 15 Sudoeste 28 Sudoeste 0 -- -- 35
2019-04-04 15:00:00 11.5 8 Sudoeste 24 Sudoeste 0 -- -- 35
2019-04-04 14:00:00 10.5 8 Oeste 19 Oeste 0 -- -- 34
2019-04-04 13:00:00 8.9 12 Sudoeste 20 Sudoeste 0 -- -- 42
2019-04-04 12:00:00 7.4 9 Sudoeste 19 Sudoeste 0 -- -- 45
2019-04-04 11:00:00 5.5 9 Sudoeste 14 Sudoeste 0 -- -- 54
2019-04-04 10:00:00 2.8 0 Calma 9 Nordeste 0 -- -- 67
2019-04-04 09:00:00 -0.6 3 Sudeste 9 Nordeste 0 -- -- 80
2019-04-04 08:00:00 -3.4 0 Calma 9 Este 0 -- -- 86
2019-04-04 07:00:00 -2.6 3 Nordeste 8 Este 0 -- -- 83
2019-04-04 06:00:00 -2.2 0 Calma 12 Nordeste 0 -- -- 82
2019-04-04 05:00:00 -1.3 4 Nordeste 11 Sudoeste 0 -- -- 80
2019-04-04 04:00:00 0.9 9 Sudoeste 17 Sudoeste 0 -- -- 69
2019-04-04 03:00:00 1.7 11 Sudoeste 22 Sudoeste 0 -- -- 67
2019-04-04 02:00:00 1.3 5 Sudoeste 19 Sudoeste 0 -- -- 69
2019-04-04 01:00:00 3 14 Oeste 33 Sudoeste 0 -- -- 64
2019-04-04 00:00:00 4 10 Sudoeste 23 Sudoeste 0 -- -- 60
2019-04-03 23:00:00 4.8 11 Sudoeste 28 Sudoeste 0 -- -- 55
2019-04-03 22:00:00 6.3 17 Sudoeste 27 Sudoeste 0 -- -- 53
2019-04-03 21:00:00 7.4 17 Sudoeste 38 Sudoeste 0 -- -- 46
2019-04-03 20:00:00 8.8 16 Sudoeste 28 Sudoeste 0 -- -- 46
2019-04-03 19:00:00 9.9 14 Sudoeste 28 Sudoeste 0 -- -- 50
2019-04-03 18:00:00 10.7 12 Sudoeste 22 Sudoeste 0 -- -- 49
2019-04-03 17:00:00 10.3 8 Sudoeste 30 Oeste 0 -- -- 57
2019-04-03 16:00:00 10.2 13 Oeste 23 Oeste 0 -- -- 61
2019-04-03 15:00:00 9.9 10 Oeste 20 Oeste 0 -- -- 68
2019-04-03 14:00:00 10.4 10 Oeste 28 Oeste 0 -- -- 68
2019-04-03 13:00:00 11 16 Sudoeste 24 Sudoeste 0 -- -- 71
2019-04-03 12:00:00 9.4 13 Sudoeste 21 Sudoeste 0 -- -- 74
2019-04-03 11:00:00 9.7 10 Oeste 17 Oeste 0 -- -- 79
2019-04-03 10:00:00 8.7 7 Oeste 12 Sudoeste 0 -- -- 86
2019-04-03 09:00:00 7.7 3 Sudeste 6 Sur 0 -- -- 91
2019-04-03 08:00:00 6.9 5 Nordeste 12 Oeste 0 -- -- 90
2019-04-03 07:00:00 7 5 Sudoeste 8 Oeste 0 -- -- 90
2019-04-03 06:00:00 6.8 4 Nordeste 9 Este 0 -- -- 88
2019-04-03 05:00:00 7 6 Nordeste 13 Este 0 -- -- 85
2019-04-03 04:00:00 7.3 4 Este 8 Sudeste 0 -- -- 85
2019-04-03 03:00:00 7.9 3 Este 8 Este 0 -- -- 77
2019-04-03 02:00:00 7.8 6 Este 10 Nordeste 0 -- -- 78
2019-04-03 01:00:00 7.8 5 Este 9 Sudeste 0 -- -- 76
2019-04-03 00:00:00 7.9 5 Este 12 Este 0 -- -- 76
2019-04-02 23:00:00 8.4 6 Este 10 Este 0 -- -- 74
2019-04-02 22:00:00 11.3 8 Sudoeste 28 Sur 0 -- -- 56
2019-04-02 21:00:00 13.2 16 Sur 34 Sur 0 -- -- 52
2019-04-02 20:00:00 15.2 19 Sur 35 Sur 0 -- -- 48
2019-04-02 19:00:00 15.8 13 Sur 23 Sur 0 -- -- 51
2019-04-02 18:00:00 16.7 10 Sur 32 Oeste 0 -- -- 50
2019-04-02 17:00:00 17.2 17 Sudoeste 26 Sur 0 -- -- 49
2019-04-02 16:00:00 15.4 4 Norte 15 Nordeste 0 -- -- 58
2019-04-02 15:00:00 10 5 Este 38 Sudoeste 2.6 -- -- 78
2019-04-02 14:00:00 14.2 19 Sudoeste 31 Sudoeste 0 -- -- 47
2019-04-02 13:00:00 15.9 13 Sudoeste 25 Sur 0 -- -- 56
2019-04-02 12:00:00 13.9 9 Sudoeste 18 Sudoeste 0 -- -- 64
2019-04-02 11:00:00 12.1 8 Oeste 13 Oeste 0 -- -- 76
2019-04-02 10:00:00 9.6 0 Calma 6 Nordeste 0 -- -- 84
2019-04-02 09:00:00 6.8 2 Oeste 3 Oeste 0 -- -- 94
2019-04-02 08:00:00 6.5 5 Nordeste 8 Este 0 -- -- 92
2019-04-02 07:00:00 7.1 5 Sur 8 Sudeste 0 -- -- 90
2019-04-02 06:00:00 7 2 Norte 7 Este 0 -- -- 91
2019-04-02 05:00:00 6.9 3 Nordeste 8 Nordeste 0 -- -- 90
2019-04-02 04:00:00 6.5 3 Este 6 Nordeste 0 -- -- 89
2019-04-02 03:00:00 6.8 0 Calma 6 Este 0 -- -- 88
2019-04-02 02:00:00 8 4 Este 6 Este 0 -- -- 84
2019-04-02 01:00:00 8.9 4 Este 8 Nordeste 0 -- -- 79
2019-04-02 00:00:00 8.5 2 Nordeste 6 Nordeste 0 -- -- 81
2019-04-01 23:00:00 8.5 0 Calma 6 Sur 0 -- -- 80
2019-04-01 22:00:00 10.3 4 Sudeste 7 Sudeste 0 -- -- 73
2019-04-01 21:00:00 11 2 Sudeste 14 Sudoeste 0 -- -- 72
2019-04-01 20:00:00 12.5 10 Sudoeste 17 Sudoeste 0 -- -- 66
2019-04-01 19:00:00 13.4 12 Sudoeste 22 Oeste 0 -- -- 61
2019-04-01 18:00:00 13.6 17 Sudoeste 27 Sudoeste 0 -- -- 61
2019-04-01 17:00:00 14.5 15 Sudoeste 28 Sudoeste 0 -- -- 56
2019-04-01 16:00:00 15.8 15 Sudoeste 27 Oeste 0 -- -- 53
2019-04-01 15:00:00 15.5 13 Sudoeste 21 Oeste 0 -- -- 57
2019-04-01 14:00:00 14.2 13 Oeste 22 Oeste 0 -- -- 67
2019-04-01 13:00:00 12.7 11 Oeste 17 Sudoeste 0 -- -- 73
2019-04-01 12:00:00 10.7 8 Sudoeste 13 Sudoeste 0 -- -- 82
2019-04-01 11:00:00 9.4 6 Oeste 9 Oeste 0 -- -- 85
2019-04-01 10:00:00 8.4 3 Noroeste 4 Noroeste 0 -- -- 93
2019-04-01 09:00:00 7.3 0 Calma 4 Sudeste 0.2 -- -- 95
2019-04-01 08:00:00 6.8 2 Nordeste 3 Nordeste 0 -- -- 95
2019-04-01 07:00:00 6.9 0 Calma 2 Sudeste 0 -- -- 93
2019-04-01 06:00:00 6.9 0 Calma 4 Sudeste 0.2 -- -- 94
2019-04-01 05:00:00 7.1 2 Nordeste 4 Nordeste 0 -- -- 93
2019-04-01 04:00:00 7.4 0 Calma 4 Sudeste 0 -- -- 91
2019-04-01 03:00:00 7.8 3 Este 6 Este 0 -- -- 83
2019-04-01 02:00:00 7.6 4 Este 6 Este 0 -- -- 83
2019-04-01 01:00:00 7.9 4 Sudeste 6 Este 0 -- -- 82
2019-04-01 00:00:00 8.1 3 Nordeste 6 Este 0 -- -- 81
2019-03-31 23:00:00 8.1 2 Sudeste 6 Nordeste 0 -- -- 81
2019-03-31 22:00:00 7.9 0 Calma 8 Sudeste 0 -- -- 81
2019-03-31 21:00:00 9.3 4 Sur 10 Oeste 0 -- -- 76
2019-03-31 20:00:00 10.2 10 Sudoeste 20 Sudoeste 0 -- -- 73
2019-03-31 19:00:00 11.4 13 Oeste 21 Sudoeste 0 -- -- 68
2019-03-31 18:00:00 12.6 13 Sudoeste 21 Oeste 0 -- -- 63
2019-03-31 17:00:00 13.7 12 Oeste 19 Oeste 0 -- -- 56
2019-03-31 16:00:00 13.8 10 Oeste -- -- -- -- -- 54
2019-03-31 15:00:00 13.9 12 Oeste 19 Sudoeste 0 -- -- 53
2019-03-31 14:00:00 13.2 9 Sudoeste 16 Sudoeste 0 -- -- 57
2019-03-31 13:00:00 11.3 6 Oeste 14 Sudoeste 0 -- -- 62
2019-03-31 12:00:00 9.9 6 Sudoeste 12 Sur 0 -- -- 65
2019-03-31 11:00:00 8.2 9 Oeste 12 Sudoeste 0 -- -- 70
2019-03-31 10:00:00 5.7 6 Sudoeste 10 Sudoeste 0 -- -- 80
2019-03-31 09:00:00 2.8 4 Este 8 Sudeste 0 -- -- 89
2019-03-31 08:00:00 1.2 2 Este 10 Este 0 -- -- 90
2019-03-31 07:00:00 0.8 4 Este 10 Nordeste 0 -- -- 93
2019-03-31 06:00:00 1.3 3 Este 8 Este 0 -- -- 91
2019-03-31 05:00:00 2.5 5 Nordeste 9 Nordeste 0 -- -- 88
2019-03-31 03:00:00 3.1 5 Nordeste 10 Este 0 -- -- 87
2019-03-31 01:00:00 3.8 6 Este 10 Nordeste 0 -- -- 88
2019-03-31 00:00:00 5.1 5 Este 11 Este 0 -- -- 79
2019-03-30 23:00:00 6 4 Sur 8 Sur 0 -- -- 78
2019-03-30 22:00:00 7.1 0 Calma 10 Oeste 0 -- -- 70
2019-03-30 21:00:00 7.5 4 Noroeste 9 Sur 0 -- -- 65
2019-03-30 20:00:00 10.1 8 Sudoeste 17 Sudoeste 0 -- -- 54
2019-03-30 19:00:00 13.6 9 Sudoeste 18 Sudoeste 0 -- -- 44
2019-03-30 18:00:00 15.9 3 Noroeste 14 Sur 0 -- -- 38
2019-03-30 17:00:00 16.2 6 Este 21 Sur 0 -- -- 38
2019-03-30 16:00:00 16.9 11 Sudoeste 26 Sur 0 -- -- 39
2019-03-30 15:00:00 16.3 14 Sudoeste 24 Sudoeste 0 -- -- 42
2019-03-30 14:00:00 14 13 Oeste 25 Noroeste 0 -- -- 47
2019-03-30 13:00:00 14.7 10 Oeste 19 Oeste 0 -- -- 43
2019-03-30 12:00:00 13.8 9 Oeste 19 Sur 0 -- -- 49
2019-03-30 11:00:00 11.5 6 Oeste 13 Sudoeste 0 -- -- 55
2019-03-30 10:00:00 9.1 8 Oeste 10 Oeste 0 -- -- 66
2019-03-30 09:00:00 5.6 4 Oeste 8 Oeste 0 -- -- 78
2019-03-30 08:00:00 2.5 3 Este 8 Nordeste 0 -- -- 86
2019-03-30 07:00:00 -0.2 2 Este 8 Este 0 -- -- 89
2019-03-30 06:00:00 0.6 3 Nordeste 9 Nordeste 0 -- -- 86
2019-03-30 05:00:00 0.3 0 Calma 10 Nordeste 0 -- -- 87
2019-03-30 04:00:00 1.6 7 Nordeste 10 Nordeste 0 -- -- 86
2019-03-30 03:00:00 1.4 0 Calma 9 Nordeste 0 -- -- 82
2019-03-30 02:00:00 2.6 3 Este 12 Nordeste 0 -- -- 80
2019-03-30 01:00:00 3.8 5 Este 12 Este 0 -- -- 77
2019-03-30 00:00:00 3.3 0 Calma 8 Este 0 -- -- 76
2019-03-29 23:00:00 6.1 7 Nordeste 17 Sur 0 -- -- 68
2019-03-29 22:00:00 9.6 10 Sudeste 17 Sudeste 0 -- -- 55
2019-03-29 21:00:00 10.4 5 Norte 30 Sudeste 0 -- -- 54
2019-03-29 20:00:00 12.3 16 Sudeste 31 Sudeste 0 -- -- 47
2019-03-29 19:00:00 14.3 6 Sudeste 18 Sudeste 0 -- -- 40
2019-03-29 18:00:00 15.1 6 Nordeste 10 Nordeste 0 -- -- 39
2019-03-29 17:00:00 14.7 6 Nordeste 10 Nordeste 0 -- -- 39
2019-03-29 16:00:00 14.6 4 Noroeste 9 Sudoeste 0 -- -- 37
2019-03-29 15:00:00 14.9 4 Sur 13 Sudoeste 0 -- -- 36
2019-03-29 14:00:00 14.2 6 Sur 19 Sur 0 -- -- 41
2019-03-29 13:00:00 14.6 8 Sur 16 Sur 0 -- -- 39
2019-03-29 12:00:00 14.4 4 Sudoeste 19 Nordeste 0 -- -- 39
2019-03-29 11:00:00 14.6 10 Nordeste 18 Nordeste 0 -- -- 41
2019-03-29 10:00:00 10.1 3 Noroeste 8 Sudoeste 0 -- -- 57
2019-03-29 09:00:00 7.2 4 Oeste 5 Oeste 0 -- -- 68
2019-03-29 08:00:00 4.8 0 Calma 6 Sudeste 0 -- -- 77
2019-03-29 07:00:00 4.4 2 Nordeste 7 Este 0 -- -- 74
2019-03-29 06:00:00 4.4 4 Este 9 Este 0 -- -- 73
2019-03-29 05:00:00 2.7 6 Este 9 Nordeste 0 -- -- 81
2019-03-29 04:00:00 2 0 Calma 8 Nordeste 0 -- -- 77
2019-03-29 03:00:00 3.6 6 Este 10 Este 0 -- -- 75
2019-03-29 02:00:00 3.2 3 Nordeste 8 Nordeste 0 -- -- 75
2019-03-29 01:00:00 4.7 0 Calma 10 Nordeste 0 -- -- 69
2019-03-29 00:00:00 5.9 4 Este 10 Nordeste 0 -- -- 67
2019-03-28 23:00:00 5.3 4 Nordeste 8 Nordeste 0 -- -- 68
2019-03-28 22:00:00 6.9 3 Sudoeste 12 Este 0 -- -- 62
2019-03-28 21:00:00 8.1 5 Nordeste 11 Sudoeste 0 -- -- 58
2019-03-28 20:00:00 10 3 Norte 14 Sur 0 -- -- 52
2019-03-28 19:00:00 13.2 8 Sudoeste 18 Sudoeste 0 -- -- 45
2019-03-28 18:00:00 15.3 11 Sudoeste 26 Sudoeste 0 -- -- 39
2019-03-28 17:00:00 16 14 Sudoeste 26 Sudoeste 0 -- -- 37
2019-03-28 16:00:00 16 17 Oeste 28 Oeste 0 -- -- 40
2019-03-28 15:00:00 15.7 19 Oeste 29 Oeste 0 -- -- 41
2019-03-28 14:00:00 15.5 20 Sudoeste 28 Oeste 0 -- -- 40
2019-03-28 13:00:00 15.6 14 Oeste 26 Noroeste 0 -- -- 36
2019-03-28 12:00:00 14.4 12 Sudoeste 19 Sudoeste 0 -- -- 38
2019-03-28 11:00:00 12.4 10 Oeste 15 Oeste 0 -- -- 42
2019-03-28 10:00:00 9.8 6 Oeste 10 Oeste 0 -- -- 47
2019-03-28 09:00:00 6.5 2 Nordeste 5 Este 0 -- -- 56
2019-03-28 08:00:00 3 3 Nordeste 7 Sudeste 0 -- -- 65
2019-03-28 07:00:00 0.8 5 Nordeste 9 Este 0 -- -- 69
2019-03-28 06:00:00 1.1 5 Nordeste 11 Nordeste 0 -- -- 68
2019-03-28 05:00:00 1.5 2 Nordeste 12 Nordeste 0 -- -- 65
2019-03-28 04:00:00 2.4 6 Nordeste 11 Nordeste 0 -- -- 61
2019-03-28 03:00:00 3.2 6 Nordeste 14 Nordeste 0 -- -- 58
2019-03-28 02:00:00 4.5 7 Este 12 Este 0 -- -- 54
2019-03-28 01:00:00 4.7 7 Este 12 Este 0 -- -- 57
2019-03-28 00:00:00 4.2 3 Este 9 Sudeste 0 -- -- 68
2019-03-27 23:00:00 5.5 3 Este 10 Nordeste 0 -- -- 65
2019-03-27 22:00:00 6.9 2 Este 10 Nordeste 0 -- -- 61
2019-03-27 21:00:00 9 8 Nordeste 12 Este 0 -- -- 56
2019-03-27 20:00:00 10.7 4 Norte 10 Sudeste 0 -- -- 51
2019-03-27 19:00:00 14.6 7 Sudoeste 15 Sudoeste 0 -- -- 40
2019-03-27 18:00:00 16.4 9 Sudoeste 19 Sudoeste 0 -- -- 39
2019-03-27 17:00:00 16.4 13 Sudoeste 23 Oeste 0 -- -- 38
2019-03-27 16:00:00 16.3 15 Oeste 28 Oeste 0 -- -- 36
2019-03-27 15:00:00 16.2 15 Sudoeste 27 Sudoeste 0 -- -- 34
2019-03-27 14:00:00 15.6 14 Sudoeste 27 Sudoeste 0 -- -- 36
2019-03-27 13:00:00 15.1 14 Sudoeste 26 Sudoeste 0 -- -- 31
2019-03-27 12:00:00 14.1 13 Sudoeste 22 Sudoeste 0 -- -- 27
2019-03-27 11:00:00 12 9 Oeste 13 Sudoeste 0 -- -- 39
2019-03-27 10:00:00 8.6 7 Oeste 13 Oeste 0 -- -- 42
2019-03-27 09:00:00 5.6 0 Calma 7 Norte 0 -- -- 59
2019-03-27 08:00:00 1.4 3 Este 9 Nordeste 0 -- -- 62
2019-03-27 07:00:00 -1.5 5 Nordeste 9 Nordeste 0 -- -- 69
2019-03-27 06:00:00 -0.3 3 Este 10 Sudeste 0 -- -- 58
2019-03-27 05:00:00 -0.7 5 Nordeste 14 Nordeste 0 -- -- 72
2019-03-27 04:00:00 0.6 8 Este 12 Este 0 -- -- 57
2019-03-27 03:00:00 1.3 5 Este 12 Nordeste 0 -- -- 52
2019-03-27 02:00:00 2 5 Este 12 Nordeste 0 -- -- 39
2019-03-27 01:00:00 2.3 4 Nordeste 12 Nordeste 0 -- -- 38
2019-03-27 00:00:00 2.8 3 Noroeste 8 Norte 0 -- -- 34